Terminal Aerodrome Forecast
Issued by NWS Nashville, TN

Home | Current Version | Previous Version | Text Only | Print | Product List | Glossary On
Versions: 1 2 3 4 5 6 7 8 9 10 11 12 13 14 15 16 17 18 19 20 21 22 23 24 25 26 27
000
FTUS44 KOHX 282348
TAFBNA
TAF
KBNA 282348Z 2900/2924 34011G21KT P6SM VCSH BKN090 BKN100
     FM290500 33006KT P6SM BKN100
     FM291100 32003KT P6SM SCT010 OVC020
      TEMPO 2911/2915 BKN010 OVC020
     FM291600 32005KT 6SM -SHRA OVC020=

USA.gov is the U.S. government's official web portal to all federal, state and local government web resources and services.